Grayville, IL

2:51 PM CDT on August 25, 2016 (GMT -0500)
APRSWXNET | | Change Station
Active Advisory: Flood Warning

Elev 435 ft 38.28 °N, 88.00 °W | Updated 4 days ago

Partly Cloudy
Partly Cloudy
90 °F
Feels Like 98 °F
N
6
Wind Variable Wind from SW
Gusts mph

Today
High -- | Low -- °F
--% Chance of Precip.
Yesterday
High -- | Low -- °F
Precip. -- in
Pressure 30.07 in
Visibility 10.0 miles
Clouds Clear
Heat Index 98 °F
Dew Point 74 °F
Humidity 59%
Rainfall in
Snow Depth Not available.
6:15 AM 7:31 PM
Last Quarter, 42% visible
METAR KCUL 251935Z AUTO 21008KT 10SM CLR 33/24 A3007 RMK AO2 T03250238
Pressure 30.07 in
Visibility 10.0 miles
Clouds Clear
Heat Index 98 °F
Dew Point 74 °F
Humidity 59%
Rainfall in
Snow Depth Not available.
6:15 AM 7:31 PM
Last Quarter, 42% visible
METAR KCUL 251935Z AUTO 21008KT 10SM CLR 33/24 A3007 RMK AO2 T03250238
A tropical disturbance pushing toward the Bahamas, is expected to develop into a tropical depression or storm, and will likely target Florida and the Gulf Coast this weekend into next week.

Right now, the disturbance remains a broad area of low pressure pushing through the Dominican Republic and Haiti, headed toward the southeast Bahamas. Rainfall totals over 3 inches (with locally higher amounts) are expected in HispaƱiola, particularly over elevated terrain.

10-Day Weather Forecast

Almanac

Astronomy

Aug. 25, 2016 Rise Set
Actual Time
Civil Twilight
Nautical Twilight
Astronomical Twilight
Moon
Length of Visible Light
Length of Day
Tomorrow will be .
, % of the Moon is Illuminated

Today's Extremes

State Highs State Lows

Community

WunderPhotos

Upload Photos

1,934,907 photos uploaded!

WunderBlog® & News

Nearby

Air Quality

  Air Quality AQ Index Pollutant
Not available.

Snow Depth

Station Depth Elevation

Earthquake Activity

City Distance Mag. Time & Date
Minimum magnitude displayed is 2.5.

Coastal Water Temperatures

Place Temperature

Stations

Nearby Weather Stations

Station Location Temp. Windchill Dew Point Humidity Wind Precip. Elev Updated Type
                   

Watches & Warnings

Flood Warning
Issued: 9:44 AM CDT Aug. 25, 2016 – National Weather Service

The Flood Warning continues for
the Little Wabash River at Carmi.
* Until Saturday evening.
* At 8:30 am Thursday the stage was 29.1 feet.
* Flood stage is 27.0 feet.
* Minor flooding is occurring and minor flooding is forecast.
* Forecast... the river will continue to fall to below flood stage by
Saturday early afternoon.


Lat... Lon 3826 8816 3801 8828 3791 8812 3793 8808
      3804 8813 3825 8802